createdAt,value
2022-12-05T00:01:15.279Z,10.38
2022-12-05T00:03:41.910Z,13.18
2022-12-05T00:06:08.525Z,11.75
2022-12-05T00:08:35.134Z,11.98
2022-12-05T00:11:01.463Z,9.77
2022-12-05T00:13:27.868Z,8.10
2022-12-05T00:15:54.239Z,9.77
2022-12-05T00:18:20.599Z,9.40
2022-12-05T00:20:48.861Z,9.13
2022-12-05T00:23:15.299Z,10.07
2022-12-05T00:25:42.188Z,10.63
2022-12-05T00:28:08.616Z,9.65
2022-12-05T00:30:34.956Z,9.65
2022-12-05T00:33:01.382Z,10.30
2022-12-05T00:35:27.805Z,11.00
2022-12-05T00:37:54.161Z,9.52
2022-12-05T00:40:20.516Z,10.52
2022-12-05T00:42:52.019Z,9.52
2022-12-05T00:45:18.741Z,9.55
2022-12-05T00:47:45.358Z,12.13
2022-12-05T00:50:11.782Z,10.65
2022-12-05T00:52:38.200Z,11.27
2022-12-05T00:55:04.956Z,12.75
2022-12-05T00:57:32.154Z,11.45
2022-12-05T00:59:58.887Z,10.02
2022-12-05T01:02:25.613Z,10.13
2022-12-05T01:04:52.012Z,9.30
2022-12-05T01:07:18.534Z,9.88
2022-12-05T01:09:44.934Z,10.13
2022-12-05T01:12:11.333Z,11.57
2022-12-05T01:14:37.765Z,10.05
2022-12-05T01:17:04.350Z,10.15
2022-12-05T01:19:32.638Z,10.43
2022-12-05T01:21:59.623Z,9.45
2022-12-05T01:24:27.028Z,10.23
2022-12-05T01:26:54.229Z,9.18
2022-12-05T01:29:22.384Z,10.32
2022-12-05T01:31:49.052Z,10.48
2022-12-05T01:34:17.022Z,8.75
2022-12-05T01:36:44.420Z,8.52
2022-12-05T01:39:12.586Z,8.98
2022-12-05T01:41:43.797Z,9.20
2022-12-05T01:44:13.247Z,9.15
2022-12-05T01:46:44.948Z,9.45
2022-12-05T01:49:17.346Z,10.00
2022-12-05T01:51:47.600Z,7.70
2022-12-05T01:54:16.330Z,7.05
2022-12-05T01:56:45.869Z,7.30
2022-12-05T01:59:13.164Z,9.02
2022-12-05T02:01:40.864Z,8.60
2022-12-05T02:04:08.597Z,8.98
2022-12-05T02:06:35.009Z,9.80
2022-12-05T02:09:01.610Z,9.25
2022-12-05T02:11:30.064Z,8.52
2022-12-05T02:14:02.409Z,8.52
2022-12-05T02:16:41.101Z,8.68
2022-12-05T02:19:22.904Z,9.50
2022-12-05T02:21:52.215Z,8.98
2022-12-05T02:24:38.032Z,9.60
2022-12-05T02:27:10.545Z,8.68
2022-12-05T02:30:01.985Z,7.63
2022-12-05T02:33:01.471Z,9.10
2022-12-05T02:35:44.655Z,8.68
2022-12-05T02:38:29.848Z,8.63
2022-12-05T02:41:04.697Z,7.75
2022-12-05T02:44:01.500Z,9.02
2022-12-05T02:46:31.236Z,9.23
2022-12-05T02:49:05.468Z,8.95
2022-12-05T02:51:38.038Z,8.65
2022-12-05T02:54:08.068Z,9.10
2022-12-05T02:56:36.212Z,9.40
2022-12-05T02:59:03.328Z,8.38
2022-12-05T03:01:32.050Z,7.85
2022-12-05T03:04:02.073Z,6.97
2022-12-05T03:06:42.979Z,7.95
2022-12-05T03:09:15.278Z,10.00
2022-12-05T03:11:47.344Z,10.10
2022-12-05T03:14:22.373Z,9.77
2022-12-05T03:16:55.057Z,9.93
2022-12-05T03:19:27.995Z,9.95
2022-12-05T03:22:10.301Z,10.73
2022-12-05T03:24:40.482Z,10.30
2022-12-05T03:27:25.636Z,10.98
2022-12-05T03:30:06.092Z,10.60
2022-12-05T03:32:41.573Z,9.93
2022-12-05T03:35:37.480Z,10.50
2022-12-05T03:38:14.303Z,12.30
2022-12-05T03:40:53.394Z,10.90
2022-12-05T03:43:27.534Z,11.25
2022-12-05T03:46:04.811Z,9.35
2022-12-05T03:48:58.952Z,12.02
2022-12-05T03:51:31.311Z,12.32
2022-12-05T03:54:08.165Z,9.75
2022-12-05T03:56:40.341Z,11.77
2022-12-05T03:59:11.704Z,10.95
2022-12-05T04:01:42.659Z,10.45
2022-12-05T04:04:19.323Z,11.25
2022-12-05T04:06:50.059Z,11.07
2022-12-05T04:09:23.650Z,11.50
2022-12-05T04:11:57.553Z,10.52
2022-12-05T04:14:44.119Z,12.32
2022-12-05T04:17:30.929Z,10.48
2022-12-05T04:20:53.628Z,10.70
2022-12-05T04:23:20.701Z,9.85
2022-12-05T04:26:13.473Z,10.93
2022-12-05T04:28:50.048Z,10.30
2022-12-05T04:31:23.091Z,9.55
2022-12-05T04:33:56.782Z,9.68
2022-12-05T04:36:36.593Z,9.67
2022-12-05T04:39:16.074Z,8.70
2022-12-05T04:41:53.862Z,9.45
2022-12-05T04:44:29.878Z,8.38
2022-12-05T04:47:00.094Z,8.38
2022-12-05T04:49:29.382Z,8.98
2022-12-05T04:52:01.287Z,7.93
2022-12-05T04:54:31.560Z,8.90
2022-12-05T04:57:07.252Z,8.13
2022-12-05T04:59:33.642Z,8.45
2022-12-05T05:02:07.544Z,8.45
2022-12-05T05:04:38.091Z,7.00
2022-12-05T05:07:09.848Z,6.80
2022-12-05T05:09:36.861Z,7.88
2022-12-05T05:12:04.231Z,8.43
2022-12-05T05:14:30.709Z,8.32
2022-12-05T05:16:57.632Z,6.60
2022-12-05T05:19:24.182Z,6.55
2022-12-05T05:21:51.434Z,6.32
2022-12-05T05:24:18.708Z,6.72
2022-12-05T05:26:46.063Z,6.25
2022-12-05T05:29:13.500Z,5.93
2022-12-05T05:31:41.563Z,5.60
2022-12-05T05:34:10.122Z,5.95
2022-12-05T05:36:36.725Z,6.43
2022-12-05T05:39:04.645Z,6.32
2022-12-05T05:41:33.677Z,5.63
2022-12-05T05:44:01.240Z,6.18
2022-12-05T05:46:30.762Z,5.95
2022-12-05T05:48:57.896Z,5.93
2022-12-05T05:51:29.180Z,5.38
2022-12-05T05:53:57.360Z,5.03
2022-12-05T05:56:23.797Z,5.25
2022-12-05T05:59:02.197Z,5.80
2022-12-05T06:01:29.509Z,4.93
2022-12-05T06:03:56.069Z,4.57
2022-12-05T06:06:23.798Z,5.05
2022-12-05T06:08:50.448Z,5.72
2022-12-05T06:11:26.336Z,4.75
2022-12-05T06:13:57.982Z,6.78
2022-12-05T06:16:25.093Z,4.57
2022-12-05T06:18:52.306Z,4.60
2022-12-05T06:21:19.107Z,5.18
2022-12-05T06:23:45.800Z,5.05
2022-12-05T06:26:16.501Z,5.57
2022-12-05T06:28:43.056Z,5.22
2022-12-05T06:31:12.301Z,5.90
2022-12-05T06:33:39.266Z,5.18
2022-12-05T06:36:11.295Z,5.03
2022-12-05T06:38:41.733Z,5.30
2022-12-05T06:41:11.651Z,5.78
2022-12-05T06:43:38.063Z,4.78
2022-12-05T06:46:09.502Z,5.43
2022-12-05T06:48:36.069Z,4.97
2022-12-05T06:51:02.967Z,4.95
2022-12-05T06:53:29.566Z,5.25
2022-12-05T06:56:02.588Z,5.10
2022-12-05T06:58:29.591Z,6.13
2022-12-05T07:01:15.071Z,5.35
2022-12-05T07:03:43.914Z,5.97
2022-12-05T07:06:10.436Z,6.15
2022-12-05T07:08:36.848Z,5.90
2022-12-05T07:11:03.534Z,5.88
2022-12-05T07:13:30.638Z,8.10
2022-12-05T07:15:59.016Z,6.47
2022-12-05T07:18:26.578Z,6.15
2022-12-05T07:21:14.391Z,5.90
2022-12-05T07:23:42.289Z,5.63
2022-12-05T07:26:11.187Z,6.38
2022-12-05T07:28:37.667Z,5.70
2022-12-05T07:31:07.189Z,6.47
2022-12-05T07:33:33.843Z,6.70
2022-12-05T07:36:02.629Z,7.20
2022-12-05T07:38:29.415Z,6.38
2022-12-05T07:40:55.972Z,4.88
2022-12-05T07:43:22.801Z,7.45
2022-12-05T07:45:49.798Z,6.30
2022-12-05T07:48:18.774Z,5.65
2022-12-05T07:50:45.617Z,5.53
2022-12-05T07:53:12.027Z,5.50
2022-12-05T07:55:38.971Z,5.07
2022-12-05T07:58:05.490Z,4.82
2022-12-05T08:00:31.857Z,5.90
2022-12-05T08:02:58.368Z,5.55
2022-12-05T08:05:24.775Z,5.65
2022-12-05T08:07:51.158Z,5.70
2022-12-05T08:10:17.781Z,5.60
2022-12-05T08:12:44.200Z,6.20
2022-12-05T08:15:10.825Z,5.35
2022-12-05T08:17:37.202Z,5.47
2022-12-05T08:20:03.784Z,5.80
2022-12-05T08:22:30.179Z,5.03
2022-12-05T08:24:56.605Z,4.78
2022-12-05T08:27:23.367Z,5.38
2022-12-05T08:29:49.748Z,5.60
2022-12-05T08:32:16.125Z,5.97
2022-12-05T08:34:42.596Z,5.25
2022-12-05T08:37:08.995Z,5.20
2022-12-05T08:39:38.731Z,5.22
2022-12-05T08:42:05.771Z,4.93
2022-12-05T08:44:32.158Z,5.45
2022-12-05T08:46:58.519Z,5.07
2022-12-05T08:49:24.844Z,5.28
2022-12-05T08:51:51.194Z,4.95
2022-12-05T08:54:17.813Z,5.55
2022-12-05T08:56:44.225Z,4.65
2022-12-05T08:59:10.659Z,5.63
2022-12-05T09:01:39.176Z,5.32
2022-12-05T09:04:06.890Z,4.85
2022-12-05T09:06:34.651Z,4.32
2022-12-05T09:09:05.637Z,4.50
2022-12-05T09:11:35.628Z,5.05
2022-12-05T09:14:02.401Z,3.53
2022-12-05T09:16:37.099Z,4.22
2022-12-05T09:19:05.324Z,3.78
2022-12-05T09:21:32.104Z,4.32
2022-12-05T09:24:00.422Z,4.30
2022-12-05T09:26:28.835Z,4.05
2022-12-05T09:28:55.399Z,5.28
2022-12-05T09:31:23.859Z,4.55
2022-12-05T09:33:51.646Z,4.63
2022-12-05T09:36:21.216Z,4.20
2022-12-05T09:38:47.769Z,4.15
2022-12-05T09:41:59.467Z,4.60
2022-12-05T09:44:41.039Z,4.53
2022-12-05T09:47:23.174Z,5.03
2022-12-05T09:50:04.549Z,5.20
2022-12-05T09:52:35.100Z,4.28
2022-12-05T09:55:13.701Z,5.57
2022-12-05T09:57:45.884Z,4.22
2022-12-05T10:00:12.931Z,4.57
2022-12-05T10:02:57.276Z,4.18
2022-12-05T10:05:42.591Z,3.80
2022-12-05T10:08:26.111Z,4.13
2022-12-05T10:11:27.871Z,4.55
2022-12-05T10:14:08.828Z,4.35
2022-12-05T10:16:42.707Z,4.28
2022-12-05T10:19:24.362Z,4.88
2022-12-05T10:22:02.138Z,4.32
2022-12-05T10:24:30.415Z,3.60
2022-12-05T10:27:02.603Z,3.95
2022-12-05T10:29:53.740Z,4.10
2022-12-05T10:32:26.925Z,4.10
2022-12-05T10:34:59.817Z,4.00
2022-12-05T10:37:26.516Z,3.67
2022-12-05T10:39:53.429Z,4.10
2022-12-05T10:42:25.429Z,3.50
2022-12-05T10:44:57.162Z,3.53
2022-12-05T10:47:23.811Z,3.55
2022-12-05T10:49:50.478Z,4.60
2022-12-05T10:52:17.095Z,4.78
2022-12-05T10:54:49.464Z,4.65
2022-12-05T10:57:25.013Z,4.55
2022-12-05T10:59:51.509Z,4.15
2022-12-05T11:02:25.947Z,4.28
2022-12-05T11:04:53.253Z,3.85
2022-12-05T11:07:33.962Z,4.20
2022-12-05T11:10:04.293Z,3.53
2022-12-05T11:12:33.322Z,3.47
2022-12-05T11:15:21.840Z,4.50
2022-12-05T11:17:49.875Z,3.30
2022-12-05T11:20:17.347Z,3.80
2022-12-05T11:22:48.860Z,3.40
2022-12-05T11:25:35.681Z,3.50
2022-12-05T11:28:17.418Z,3.67
2022-12-05T11:31:09.501Z,4.00
2022-12-05T11:33:36.487Z,3.97
2022-12-05T11:36:04.899Z,3.60
2022-12-05T11:38:32.761Z,3.22
2022-12-05T11:41:03.649Z,3.83
2022-12-05T11:43:36.154Z,3.45
2022-12-05T11:46:26.905Z,3.70
2022-12-05T11:49:12.063Z,3.90
2022-12-05T11:52:01.240Z,3.60
2022-12-05T11:57:56.627Z,4.20
2022-12-05T12:00:32.998Z,4.25
2022-12-05T12:03:14.704Z,4.30
2022-12-05T12:06:00.578Z,3.45
2022-12-05T12:08:42.237Z,3.25
2022-12-05T12:11:24.992Z,3.58
2022-12-05T12:14:19.257Z,3.70
2022-12-05T12:17:23.382Z,3.55
2022-12-05T12:20:15.943Z,3.90
2022-12-05T12:23:09.588Z,3.50
2022-12-05T12:25:51.580Z,3.20
2022-12-05T12:28:31.215Z,3.88
2022-12-05T12:31:12.705Z,3.50
2022-12-05T12:33:45.195Z,4.25
2022-12-05T12:36:27.905Z,3.35
2022-12-05T12:39:11.066Z,3.85
2022-12-05T12:41:49.181Z,3.95
2022-12-05T12:44:40.507Z,3.92
2022-12-05T12:47:39.884Z,3.80
2022-12-05T12:50:14.887Z,3.75
2022-12-05T12:52:53.154Z,3.50
2022-12-05T12:55:35.659Z,4.57
2022-12-05T12:58:31.672Z,4.13
2022-12-05T13:01:11.929Z,4.38
2022-12-05T13:03:51.810Z,3.50
2022-12-05T13:06:40.759Z,3.25
2022-12-05T13:09:29.332Z,2.85
2022-12-05T13:12:00.575Z,3.15
2022-12-05T13:14:29.028Z,3.70
2022-12-05T13:16:57.968Z,3.28
2022-12-05T13:19:44.882Z,2.95
2022-12-05T13:22:13.604Z,3.70
2022-12-05T13:24:41.353Z,4.15
2022-12-05T13:27:13.659Z,3.47
2022-12-05T13:29:50.851Z,3.28
2022-12-05T13:32:40.829Z,3.30
2022-12-05T13:35:07.151Z,3.33
2022-12-05T13:37:53.617Z,3.25
2022-12-05T13:40:47.715Z,3.72
2022-12-05T13:43:23.099Z,3.75
2022-12-05T13:46:09.694Z,5.32
2022-12-05T13:48:40.780Z,3.13
2022-12-05T13:51:13.473Z,4.38
2022-12-05T13:53:43.831Z,3.30
2022-12-05T13:56:13.195Z,3.30
2022-12-05T13:58:57.274Z,4.63
2022-12-05T14:01:26.853Z,3.23
2022-12-05T14:03:58.941Z,3.75
2022-12-05T14:06:40.283Z,3.30
2022-12-05T14:09:19.159Z,5.80
2022-12-05T14:12:27.550Z,4.15
2022-12-05T14:14:57.194Z,3.88
2022-12-05T14:17:30.111Z,3.85
2022-12-05T14:20:21.336Z,3.35
2022-12-05T14:23:26.233Z,4.22
2022-12-05T14:26:02.118Z,3.58
2022-12-05T14:28:57.128Z,2.60
2022-12-05T14:31:31.631Z,3.05
2022-12-05T14:34:22.261Z,3.25
2022-12-05T14:36:54.175Z,4.05
2022-12-05T14:39:33.163Z,3.38
2022-12-05T14:42:02.851Z,3.38
2022-12-05T14:44:32.254Z,3.25
2022-12-05T14:47:03.255Z,3.50
2022-12-05T14:49:52.739Z,3.13
2022-12-05T14:52:22.777Z,2.90
2022-12-05T14:54:52.474Z,2.90
2022-12-05T14:57:20.082Z,4.03
2022-12-05T14:59:57.598Z,3.67
2022-12-05T15:02:44.633Z,3.03
2022-12-05T15:05:25.809Z,3.00
2022-12-05T15:07:54.701Z,2.50
2022-12-05T15:10:39.146Z,3.40
2022-12-05T15:13:14.575Z,3.30
2022-12-05T15:15:45.883Z,3.22
2022-12-05T15:18:18.684Z,4.13
2022-12-05T15:20:52.841Z,3.58
2022-12-05T15:23:42.983Z,3.90
2022-12-05T15:26:46.293Z,3.40
2022-12-05T15:29:19.527Z,3.80
2022-12-05T15:31:55.029Z,4.03
2022-12-05T15:34:36.752Z,5.43
2022-12-05T15:37:23.673Z,6.95
2022-12-05T15:40:00.340Z,6.25
2022-12-05T15:42:35.613Z,4.28
2022-12-05T15:45:14.538Z,3.40
2022-12-05T15:47:46.594Z,3.58
2022-12-05T15:50:22.714Z,3.67
2022-12-05T15:52:54.373Z,3.72
2022-12-05T15:56:01.892Z,4.13
2022-12-05T15:58:34.609Z,3.80
2022-12-05T16:01:17.285Z,4.18
2022-12-05T16:03:59.998Z,3.40
2022-12-05T16:06:35.761Z,3.88
2022-12-05T16:09:11.512Z,4.22
2022-12-05T16:11:38.994Z,3.08
2022-12-05T16:14:07.751Z,4.00
2022-12-05T16:16:37.336Z,3.60
2022-12-05T16:19:14.830Z,3.72
2022-12-05T16:22:00.217Z,3.50
2022-12-05T16:24:32.555Z,3.65
2022-12-05T16:27:07.162Z,3.40
2022-12-05T16:32:05.081Z,3.45
2022-12-05T16:34:33.848Z,3.55
2022-12-05T16:37:00.562Z,3.63
2022-12-05T16:39:28.373Z,4.13
2022-12-05T16:41:55.209Z,4.45
2022-12-05T16:44:31.673Z,3.83
2022-12-05T16:46:58.619Z,3.40
2022-12-05T16:49:30.840Z,3.80
2022-12-05T16:52:09.379Z,3.53
2022-12-05T16:54:35.823Z,3.60
2022-12-05T16:57:02.922Z,3.35
2022-12-05T16:59:35.124Z,3.50
2022-12-05T17:02:03.585Z,3.25
2022-12-05T17:04:31.414Z,4.43
2022-12-05T17:06:57.903Z,3.40
2022-12-05T17:09:24.344Z,4.13
2022-12-05T17:11:54.192Z,4.10
2022-12-05T17:14:21.381Z,3.90
2022-12-05T17:16:47.816Z,4.13
2022-12-05T17:19:14.482Z,3.28
2022-12-05T17:21:42.632Z,3.83
2022-12-05T17:24:16.325Z,3.42
2022-12-05T17:26:43.148Z,3.70
2022-12-05T17:29:10.140Z,3.25
2022-12-05T17:31:36.568Z,3.55
2022-12-05T17:34:04.550Z,3.67
2022-12-05T17:36:30.953Z,3.30
2022-12-05T17:38:57.381Z,3.53
2022-12-05T17:41:24.232Z,4.05
2022-12-05T17:43:51.387Z,3.17
2022-12-05T17:46:20.773Z,3.72
2022-12-05T17:48:48.185Z,4.95
2022-12-05T17:51:14.805Z,3.65
2022-12-05T17:53:43.036Z,3.15
2022-12-05T17:56:09.423Z,3.40
2022-12-05T17:58:35.952Z,3.55
2022-12-05T18:01:02.758Z,3.05
2022-12-05T18:03:29.979Z,3.00
2022-12-05T18:05:56.564Z,3.60
2022-12-05T18:08:24.107Z,5.25
2022-12-05T18:10:51.164Z,5.22
2022-12-05T18:13:18.326Z,4.68
2022-12-05T18:15:46.879Z,3.95
2022-12-05T18:18:17.635Z,3.28
2022-12-05T18:20:44.175Z,4.00
2022-12-05T18:23:10.694Z,3.83
2022-12-05T18:25:37.140Z,3.92
2022-12-05T18:28:03.634Z,3.17
2022-12-05T18:30:30.040Z,3.10
2022-12-05T18:32:56.474Z,3.15
2022-12-05T18:35:40.157Z,3.03
2022-12-05T18:38:08.215Z,2.50
2022-12-05T18:40:34.566Z,3.72
2022-12-05T18:43:01.031Z,3.28
2022-12-05T18:45:27.473Z,3.38
2022-12-05T18:48:00.581Z,3.00
2022-12-05T18:50:36.539Z,2.70
2022-12-05T18:53:03.539Z,3.72
2022-12-05T18:55:57.980Z,3.15
2022-12-05T18:58:16.421Z,3.30
2022-12-05T19:00:42.849Z,4.43
2022-12-05T19:03:09.580Z,4.28
2022-12-05T19:05:36.345Z,2.72
2022-12-05T19:08:02.881Z,3.22
2022-12-05T19:10:29.349Z,3.50
2022-12-05T19:12:56.596Z,2.97
2022-12-05T19:17:50.763Z,3.33
2022-12-05T19:20:17.213Z,2.78
2022-12-05T19:22:43.562Z,2.65
2022-12-05T19:25:09.946Z,2.67
2022-12-05T19:27:36.376Z,2.47
2022-12-05T19:30:09.176Z,2.28
2022-12-05T19:32:40.208Z,2.20
2022-12-05T19:35:07.820Z,2.80
2022-12-05T19:37:34.388Z,2.78
2022-12-05T19:40:01.021Z,2.15
2022-12-05T19:42:29.326Z,3.33
2022-12-05T19:44:55.690Z,3.80
2022-12-05T19:47:22.101Z,3.05
2022-12-05T19:49:48.638Z,2.75
2022-12-05T19:52:17.814Z,2.97
2022-12-05T19:54:47.446Z,3.03
2022-12-05T19:57:13.790Z,4.15
2022-12-05T19:59:40.132Z,2.95
2022-12-05T20:02:06.896Z,2.85
2022-12-05T20:04:33.287Z,2.72
2022-12-05T20:06:59.719Z,2.55
2022-12-05T20:09:26.477Z,2.13
2022-12-05T20:11:55.427Z,2.95
2022-12-05T20:14:24.247Z,2.80
2022-12-05T20:16:50.725Z,3.38
2022-12-05T20:19:17.231Z,2.42
2022-12-05T20:21:44.485Z,2.55
2022-12-05T20:24:11.533Z,1.95
2022-12-05T20:26:40.598Z,2.95
2022-12-05T20:29:07.913Z,3.38
2022-12-05T20:31:36.735Z,3.35
2022-12-05T20:34:04.030Z,3.00
2022-12-05T20:36:32.543Z,2.60
2022-12-05T20:39:01.653Z,3.17
2022-12-05T20:41:28.471Z,2.90
2022-12-05T20:43:58.011Z,3.30
2022-12-05T20:46:25.107Z,3.33
2022-12-05T20:48:53.097Z,2.78
2022-12-05T20:51:22.386Z,3.55
2022-12-05T20:53:49.728Z,3.08
2022-12-05T20:56:22.343Z,3.33
2022-12-05T20:58:50.927Z,3.78
2022-12-05T21:01:19.099Z,2.88
2022-12-05T21:03:48.174Z,2.70
2022-12-05T21:06:16.932Z,3.83
2022-12-05T21:08:43.588Z,4.22
2022-12-05T21:11:11.606Z,3.90
2022-12-05T21:13:38.752Z,4.03
2022-12-05T21:16:08.344Z,2.78
2022-12-05T21:18:36.076Z,3.03
2022-12-05T21:21:05.492Z,3.00
2022-12-05T21:23:32.722Z,4.40
2022-12-05T21:26:05.440Z,3.17
2022-12-05T21:28:33.549Z,3.17
2022-12-05T21:31:09.340Z,3.13
2022-12-05T21:33:35.980Z,3.47
2022-12-05T21:36:02.432Z,2.85
2022-12-05T21:38:28.862Z,3.58
2022-12-05T21:40:55.243Z,2.83
2022-12-05T21:43:21.732Z,2.78
2022-12-05T21:45:54.817Z,2.95
2022-12-05T21:48:23.013Z,3.10
2022-12-05T21:50:49.718Z,3.42
2022-12-05T21:53:17.096Z,2.47
2022-12-05T21:55:43.776Z,2.70
2022-12-05T21:58:10.958Z,3.42
2022-12-05T22:00:38.505Z,2.05
2022-12-05T22:03:05.790Z,3.00
2022-12-05T22:05:33.281Z,2.83
2022-12-05T22:08:03.483Z,2.70
2022-12-05T22:10:34.383Z,2.58
2022-12-05T22:13:00.783Z,2.25
2022-12-05T22:15:27.239Z,2.05
2022-12-05T22:17:53.799Z,1.75
2022-12-05T22:20:20.212Z,1.40
2022-12-05T22:22:46.621Z,1.40
2022-12-05T22:25:13.093Z,1.85
2022-12-05T22:27:39.508Z,1.42
2022-12-05T22:30:06.735Z,1.52
2022-12-05T22:32:33.075Z,1.67
2022-12-05T22:35:03.699Z,1.20
2022-12-05T22:37:30.713Z,1.60
2022-12-05T22:39:57.612Z,1.10
2022-12-05T22:42:26.122Z,1.30
2022-12-05T22:44:52.530Z,1.20
2022-12-05T22:47:19.023Z,0.80
2022-12-05T22:49:45.463Z,1.67
2022-12-05T22:52:11.860Z,1.10
2022-12-05T22:54:38.322Z,1.17
2022-12-05T22:57:04.731Z,0.98
2022-12-05T22:59:31.072Z,1.38
2022-12-05T23:01:57.503Z,1.30
2022-12-05T23:04:24.095Z,1.20
2022-12-05T23:06:50.611Z,1.30
2022-12-05T23:09:18.215Z,1.02
2022-12-05T23:11:44.683Z,1.48
2022-12-05T23:14:11.315Z,1.00
2022-12-05T23:16:38.270Z,0.90
2022-12-05T23:19:05.466Z,0.90
2022-12-05T23:21:35.327Z,0.95
2022-12-05T23:24:04.491Z,1.10
2022-12-05T23:26:36.980Z,0.95
2022-12-05T23:29:03.754Z,0.80
2022-12-05T23:31:30.294Z,0.80
2022-12-05T23:34:01.447Z,1.40
2022-12-05T23:36:29.847Z,1.58
2022-12-05T23:38:56.262Z,0.90
2022-12-05T23:41:24.162Z,0.98
2022-12-05T23:43:51.734Z,0.70
2022-12-05T23:46:20.822Z,0.85
2022-12-05T23:48:48.051Z,1.00
2022-12-05T23:51:16.158Z,1.05
2022-12-05T23:53:44.263Z,0.80
2022-12-05T23:56:13.825Z,1.00
2022-12-05T23:58:40.839Z,0.90
